Time;durP1;ratioP1;P1;durP2;ratioP2;P2;SDS_P1;SDS_P2;PMS_P1;PMS_P2;Temp;Humidity;BMP_temperature;BMP_pressure;BME280_temperature;BME280_humidity;BME280_pressure;Samples;Min_cycle;Max_cycle;Signal;HPM_P1;HPM_P2
2023/10/10 00:02:19;;;;;;;42.88;26.98;;;17.50;99.90;;;;;;5060397;28;20165;-94
2023/10/10 00:05:11;;;;;;;40.75;27.17;;;17.40;99.90;;;;;;5060337;28;20021;-93
2023/10/10 00:07:59;;;;;;;43.15;27.88;;;17.40;99.90;;;;;;5060132;28;20033;-94
2023/10/10 00:10:27;;;;;;;41.15;27.77;;;17.40;99.90;;;;;;5058872;28;20017;-94
2023/10/10 00:12:53;;;;;;;40.60;26.85;;;17.70;99.90;;;;;;5076138;22;20064;-94
2023/10/10 00:15:49;;;;;;;39.83;26.83;;;17.30;99.90;;;;;;5059191;28;20025;-95
2023/10/10 00:18:29;;;;;;;42.42;27.60;;;17.40;99.90;;;;;;5090931;22;20065;-93
2023/10/10 00:23:47;;;;;;;39.60;27.17;;;17.30;99.90;;;;;;5059167;28;20115;-94
2023/10/10 00:26:14;;;;;;;37.08;26.20;;;17.30;99.90;;;;;;5057518;28;20040;-93
2023/10/10 00:28:44;;;;;;;35.95;26.33;;;17.50;99.90;;;;;;5058546;28;20021;-93
2023/10/10 00:31:28;;;;;;;41.00;25.92;;;17.30;99.90;;;;;;5071451;28;20048;-93
2023/10/10 00:33:55;;;;;;;42.22;28.58;;;16.30;99.90;;;;;;5077693;28;20040;-94
2023/10/10 00:36:41;;;;;;;36.25;28.05;;;17.20;99.90;;;;;;5077740;28;20025;-93
2023/10/10 00:42:04;;;;;;;34.80;26.30;;;17.10;99.90;;;;;;5077621;28;20043;-93
2023/10/10 00:44:30;;;;;;;40.95;26.83;;;17.30;99.90;;;;;;5070263;28;20017;-93
2023/10/10 00:47:13;;;;;;;36.15;26.95;;;17.10;99.90;;;;;;5062145;28;20036;-95
2023/10/10 00:49:44;;;;;;;37.90;27.58;;;17.10;99.90;;;;;;5062470;28;20047;-96
2023/10/10 00:52:30;;;;;;;37.45;26.77;;;17.00;99.90;;;;;;5061412;28;20465;-93
2023/10/10 00:54:56;;;;;;;37.33;26.38;;;17.00;99.90;;;;;;5061378;28;20039;-96
2023/10/10 00:57:26;;;;;;;36.35;26.80;;;16.10;99.90;;;;;;5061590;28;20025;-95
2023/10/10 01:00:10;;;;;;;36.53;26.40;;;16.90;99.90;;;;;;5052310;28;20039;-95
2023/10/10 01:02:37;;;;;;;40.45;25.17;;;16.10;99.90;;;;;;5061145;28;20061;-95
2023/10/10 01:05:24;;;;;;;37.88;27.13;;;16.90;99.90;;;;;;5059741;28;20028;-94
2023/10/10 01:07:51;;;;;;;32.83;24.55;;;16.90;99.90;;;;;;5064417;28;20033;-95
2023/10/10 01:10:17;;;;;;;33.78;24.45;;;17.30;99.90;;;;;;5068239;28;20009;-95
2023/10/10 01:12:58;;;;;;;34.08;24.75;;;16.80;99.90;;;;;;5079349;28;20010;-95
2023/10/10 01:15:33;;;;;;;32.30;23.77;;;16.80;99.90;;;;;;5079900;28;20054;-95
2023/10/10 01:18:15;;;;;;;31.13;24.15;;;16.80;99.90;;;;;;5077999;28;20025;-94
2023/10/10 01:23:28;;;;;;;28.98;22.13;;;16.60;99.90;;;;;;5069042;28;20036;-94
2023/10/10 01:26:05;;;;;;;22.75;20.33;;;16.70;99.90;;;;;;5070802;28;20040;-93
2023/10/10 01:28:41;;;;;;;25.52;21.10;;;16.50;99.90;;;;;;5063511;28;20493;-95
2023/10/10 01:31:10;;;;;;;22.60;20.05;;;16.70;99.90;;;;;;5067942;28;20025;-93
2023/10/10 01:33:51;;;;;;;26.40;22.50;;;16.70;99.90;;;;;;5068209;28;20025;-93
2023/10/10 01:36:21;;;;;;;27.98;22.15;;;16.00;99.90;;;;;;5062001;28;20508;-95
2023/10/10 01:39:19;;;;;;;25.50;20.93;;;16.40;99.90;;;;;;5062089;28;20029;-94
2023/10/10 01:41:48;;;;;;;25.92;22.60;;;15.50;99.90;;;;;;5061934;28;20611;-95
2023/10/10 01:44:23;;;;;;;35.70;23.60;;;16.30;99.90;;;;;;5054755;28;20033;-94
2023/10/10 01:46:51;;;;;;;34.88;24.60;;;16.40;99.90;;;;;;5058488;28;20051;-94
2023/10/10 01:49:20;;;;;;;26.35;22.83;;;15.80;99.90;;;;;;5058378;28;20370;-95
2023/10/10 01:51:58;;;;;;;31.60;25.20;;;16.50;99.90;;;;;;5058807;28;20025;-94
2023/10/10 01:54:40;;;;;;;34.72;25.50;;;16.40;99.90;;;;;;5060634;28;20057;-94
2023/10/10 01:57:07;;;;;;;34.45;26.30;;;16.50;99.90;;;;;;5066254;28;20119;-96
2023/10/10 01:59:53;;;;;;;32.00;26.30;;;16.50;99.90;;;;;;5060307;28;20052;-93
2023/10/10 02:02:23;;;;;;;34.80;28.02;;;16.50;99.90;;;;;;5062480;28;20040;-94
2023/10/10 02:05:04;;;;;;;34.83;27.33;;;16.50;99.90;;;;;;5059623;28;20060;-94
2023/10/10 02:07:31;;;;;;;30.02;26.73;;;16.50;99.90;;;;;;5059080;28;20146;-94
2023/10/10 02:12:46;;;;;;;28.48;25.27;;;16.40;99.90;;;;;;5002138;28;20042;-94
2023/10/10 02:15:13;;;;;;;29.23;26.02;;;16.40;99.90;;;;;;5007879;28;20041;-94
2023/10/10 02:18:04;;;;;;;28.67;25.52;;;16.40;99.90;;;;;;5001347;28;20041;-94
2023/10/10 02:24:09;;;;;;;27.60;24.80;;;16.40;99.90;;;;;;5002256;28;20093;-95
2023/10/10 02:26:52;;;;;;;27.90;24.92;;;16.30;99.90;;;;;;5024908;28;20030;-95
2023/10/10 02:34:37;;;;;;;27.58;24.98;;;16.50;99.90;;;;;;5037653;28;20033;-94
2023/10/10 02:42:33;;;;;;;29.60;26.35;;;16.50;99.90;;;;;;5026122;28;20034;-94
2023/10/10 02:44:59;;;;;;;27.42;24.75;;;16.20;99.90;;;;;;5055765;28;20417;-94
2023/10/10 02:47:32;;;;;;;27.40;24.75;;;16.20;99.90;;;;;;5056065;28;20366;-95
2023/10/10 02:50:11;;;;;;;26.55;23.98;;;16.20;99.90;;;;;;5050109;28;20033;-94
2023/10/10 02:52:45;;;;;;;28.70;25.67;;;16.20;99.90;;;;;;5055740;28;20060;-95
2023/10/10 02:55:33;;;;;;;28.13;25.33;;;16.20;99.90;;;;;;5055626;28;20468;-94
2023/10/10 02:57:59;;;;;;;28.58;25.80;;;16.20;99.90;;;;;;5059796;28;20029;-93
2023/10/10 03:00:40;;;;;;;27.77;25.08;;;16.20;99.90;;;;;;5060853;28;20075;-94
2023/10/10 03:03:11;;;;;;;31.27;26.40;;;16.20;99.90;;;;;;5060062;28;20033;-94
2023/10/10 03:05:39;;;;;;;28.42;25.40;;;16.30;99.90;;;;;;5056119;28;20029;-94
2023/10/10 03:08:35;;;;;;;30.20;26.77;;;16.70;99.90;;;;;;5056109;28;20040;-94
2023/10/10 03:11:35;;;;;;;31.88;28.40;;;16.00;99.90;;;;;;5072013;28;20010;-93
2023/10/10 03:14:25;;;;;;;32.53;29.02;;;16.00;99.90;;;;;;5057950;28;20045;-95
2023/10/10 03:17:31;;;;;;;33.22;28.60;;;16.00;99.90;;;;;;5055533;28;20033;-94
2023/10/10 03:23:10;;;;;;;37.30;28.90;;;16.00;99.90;;;;;;4984835;28;20047;-94
2023/10/10 03:26:04;;;;;;;32.28;28.83;;;16.00;99.90;;;;;;4985437;28;20027;-94
2023/10/10 03:28:34;;;;;;;33.67;30.15;;;16.50;99.90;;;;;;5055196;28;20047;-94
2023/10/10 03:33:44;;;;;;;32.85;28.90;;;15.90;99.90;;;;;;5054777;28;20036;-94
2023/10/10 03:36:32;;;;;;;35.13;31.38;;;15.90;99.90;;;;;;5012748;28;1193028;-94
2023/10/10 03:39:15;;;;;;;39.15;30.58;;;16.10;99.90;;;;;;5056344;28;20489;-94
2023/10/10 05:23:58;;;;;;;44.10;33.25;;;16.10;99.90;;;;;;5057243;28;20079;-93
2023/10/10 05:26:24;;;;;;;37.58;29.67;;;15.40;99.90;;;;;;5056990;28;20032;-94
2023/10/10 05:28:50;;;;;;;41.00;30.88;;;15.30;99.90;;;;;;5057142;28;20024;-95
2023/10/10 05:31:21;;;;;;;42.40;30.85;;;15.30;99.90;;;;;;5056690;28;20036;-94
2023/10/10 05:33:50;;;;;;;42.60;30.77;;;15.60;99.90;;;;;;5055204;28;20028;-94
2023/10/10 05:36:18;;;;;;;42.05;31.63;;;15.30;99.90;;;;;;5055856;28;20028;-92
2023/10/10 05:38:45;;;;;;;43.67;30.77;;;15.20;99.90;;;;;;5055555;28;20041;-94
2023/10/10 05:41:12;;;;;;;41.30;31.90;;;15.30;99.90;;;;;;5056263;28;20063;-92
2023/10/10 05:43:39;;;;;;;46.65;32.83;;;15.50;99.90;;;;;;5055773;28;20047;-93
2023/10/10 05:46:05;;;;;;;41.65;32.10;;;15.20;99.90;;;;;;5056159;28;20389;-93
2023/10/10 05:48:32;;;;;;;46.08;33.47;;;15.30;99.90;;;;;;5056093;28;20376;-94
2023/10/10 05:51:03;;;;;;;42.25;32.53;;;15.20;99.90;;;;;;5056359;28;20049;-94
2023/10/10 05:53:32;;;;;;;47.00;32.72;;;15.30;99.90;;;;;;5057568;28;20025;-94
2023/10/10 05:55:59;;;;;;;52.67;35.43;;;15.30;99.90;;;;;;5059524;28;20033;-94
2023/10/10 05:58:26;;;;;;;51.35;35.55;;;15.30;99.90;;;;;;5059102;28;20053;-94
2023/10/10 06:00:53;;;;;;;46.20;34.15;;;15.30;99.90;;;;;;5057379;28;20401;-94
2023/10/10 06:03:20;;;;;;;47.45;34.22;;;15.30;99.90;;;;;;5057059;28;20395;-93
2023/10/10 06:05:49;;;;;;;52.92;35.40;;;15.40;99.90;;;;;;5059185;28;20025;-94
2023/10/10 06:08:16;;;;;;;54.60;36.67;;;15.50;99.90;;;;;;5061137;28;20529;-94
2023/10/10 06:10:43;;;;;;;49.05;34.67;;;14.70;99.90;;;;;;5064489;28;20025;-93
2023/10/10 06:13:11;;;;;;;45.03;35.05;;;15.30;99.90;;;;;;5068384;28;20029;-94
2023/10/10 06:15:37;;;;;;;55.10;36.88;;;15.30;99.90;;;;;;5062674;28;20097;-93
2023/10/10 06:18:13;;;;;;;47.13;35.05;;;16.10;99.90;;;;;;5062566;28;20025;-93
2023/10/10 06:20:43;;;;;;;50.47;35.00;;;15.30;99.90;;;;;;5058781;28;20422;-93
2023/10/10 06:23:14;;;;;;;52.63;37.15;;;15.30;99.90;;;;;;5057000;28;20053;-93
2023/10/10 06:25:40;;;;;;;59.30;35.85;;;15.20;99.90;;;;;;5057202;28;20026;-94
2023/10/10 06:28:14;;;;;;;52.05;36.80;;;15.20;99.90;;;;;;5055734;28;20136;-95
2023/10/10 06:30:43;;;;;;;58.25;36.70;;;15.30;99.90;;;;;;5054130;28;20532;-95
2023/10/10 06:33:10;;;;;;;47.63;34.83;;;15.30;99.90;;;;;;5054548;28;20035;-93
2023/10/10 06:35:39;;;;;;;54.45;37.05;;;15.30;99.90;;;;;;5060117;28;20035;-92
2023/10/10 06:38:12;;;;;;;52.13;35.97;;;14.00;99.90;;;;;;5058749;28;20028;-93
2023/10/10 06:40:52;;;;;;;51.72;35.08;;;15.30;99.90;;;;;;5059549;28;20033;-93
2023/10/10 06:43:24;;;;;;;55.25;38.28;;;15.30;99.90;;;;;;5059566;28;20038;-93
2023/10/10 06:45:55;;;;;;;61.63;37.28;;;15.20;99.90;;;;;;5041147;28;20079;-95
2023/10/10 06:48:22;;;;;;;60.95;37.70;;;15.20;99.90;;;;;;5059421;28;20032;-94
2023/10/10 06:50:49;;;;;;;58.92;38.05;;;15.30;99.90;;;;;;5059660;28;20104;-94
2023/10/10 06:53:28;;;;;;;59.55;39.28;;;15.30;99.90;;;;;;5061852;28;20029;-95
2023/10/10 06:55:54;;;;;;;54.53;39.05;;;14.50;99.90;;;;;;5056675;28;20051;-94
2023/10/10 06:58:22;;;;;;;61.50;39.25;;;15.50;99.90;;;;;;5058799;28;20048;-94
2023/10/10 07:00:53;;;;;;;66.57;39.35;;;15.40;99.90;;;;;;5064302;28;20075;-93
2023/10/10 07:03:30;;;;;;;68.68;41.30;;;15.30;99.90;;;;;;5066442;28;20037;-94
2023/10/10 07:06:03;;;;;;;62.47;41.83;;;15.30;99.90;;;;;;5062363;28;20033;-95
2023/10/10 07:08:34;;;;;;;64.78;42.88;;;15.70;99.90;;;;;;5064328;28;20376;-93
2023/10/10 07:11:05;;;;;;;71.45;45.00;;;15.50;99.90;;;;;;5065344;28;20029;-94
2023/10/10 07:13:43;;;;;;;63.92;42.85;;;15.20;99.90;;;;;;5072857;28;20020;-94
2023/10/10 07:16:33;;;;;;;66.40;44.15;;;15.20;99.90;;;;;;5078186;28;20017;-93
2023/10/10 07:19:19;;;;;;;67.60;43.92;;;15.30;99.90;;;;;;5050979;28;20092;-94
2023/10/10 07:21:54;;;;;;;68.28;43.05;;;15.40;99.90;;;;;;5064144;28;20037;-94
2023/10/10 07:24:25;;;;;;;75.93;46.03;;;15.40;99.90;;;;;;5064800;28;20054;-94
2023/10/10 07:27:18;;;;;;;76.57;46.42;;;15.40;99.90;;;;;;5075715;28;20023;-93
2023/10/10 07:30:19;;;;;;;69.18;43.45;;;15.40;99.90;;;;;;5081992;28;20084;-94
2023/10/10 07:33:02;;;;;;;68.57;45.22;;;15.40;99.90;;;;;;5076362;28;20040;-95
2023/10/10 07:35:29;;;;;;;78.60;46.40;;;15.60;99.90;;;;;;5081350;28;20029;-95
2023/10/10 07:38:16;;;;;;;73.32;46.38;;;15.40;99.90;;;;;;5076053;28;20028;-94
2023/10/10 07:41:18;;;;;;;66.43;45.33;;;15.50;99.90;;;;;;5072857;28;20033;-93
2023/10/10 07:43:49;;;;;;;65.00;44.40;;;15.50;99.90;;;;;;5071926;28;20029;-93
2023/10/10 07:46:28;;;;;;;70.30;45.00;;;15.50;99.90;;;;;;5063727;28;20056;-92
2023/10/10 07:49:00;;;;;;;73.25;45.17;;;14.80;99.90;;;;;;5071607;28;20091;-94
2023/10/10 07:51:49;;;;;;;74.30;47.88;;;15.50;99.90;;;;;;5072659;28;20028;-93
2023/10/10 07:54:41;;;;;;;77.15;46.83;;;15.50;99.90;;;;;;5068642;28;20048;-95
2023/10/10 07:57:29;;;;;;;67.65;46.78;;;15.60;99.90;;;;;;5068421;28;20025;-94
2023/10/10 07:59:58;;;;;;;68.90;45.33;;;16.20;99.90;;;;;;5073849;28;20017;-93
2023/10/10 08:02:25;;;;;;;65.53;46.35;;;15.60;99.90;;;;;;5073361;28;20116;-94
2023/10/10 08:05:11;;;;;;;71.90;44.53;;;15.60;99.90;;;;;;5066925;28;20173;-94
2023/10/10 08:07:37;;;;;;;71.03;47.40;;;15.70;99.90;;;;;;5066921;28;20485;-94
2023/10/10 08:10:30;;;;;;;77.43;48.00;;;15.70;99.90;;;;;;5054053;28;20139;-94
2023/10/10 08:13:00;;;;;;;66.20;45.65;;;15.80;99.90;;;;;;5075421;28;20029;-95
2023/10/10 08:16:19;;;;;;;64.07;47.00;;;15.80;99.90;;;;;;5010736;28;20037;-94
2023/10/10 08:19:09;;;;;;;69.88;46.63;;;16.20;99.90;;;;;;5061019;28;20084;-95
2023/10/10 08:22:12;;;;;;;80.05;48.72;;;16.40;99.90;;;;;;5074655;28;20049;-94
2023/10/10 08:24:43;;;;;;;75.57;48.78;;;15.50;99.90;;;;;;5076565;28;20029;-94
2023/10/10 08:27:23;;;;;;;72.75;48.53;;;15.80;99.90;;;;;;5066464;28;20071;-92
2023/10/10 08:29:50;;;;;;;69.13;47.47;;;15.90;99.90;;;;;;5068473;28;20104;-95
2023/10/10 08:32:38;;;;;;;71.60;46.78;;;15.80;99.90;;;;;;5072089;28;20031;-96
2023/10/10 08:35:08;;;;;;;73.90;46.92;;;15.90;99.90;;;;;;5023689;28;20052;-95
2023/10/10 08:37:53;;;;;;;66.87;47.63;;;15.90;99.90;;;;;;5063794;28;20063;-94
2023/10/10 08:41:08;;;;;;;63.03;44.50;;;16.00;99.90;;;;;;5046940;28;20032;-94
2023/10/10 08:44:20;;;;;;;62.40;44.70;;;16.10;99.90;;;;;;5054625;28;20025;-94
2023/10/10 08:47:25;;;;;;;64.00;45.38;;;16.10;99.90;;;;;;5017010;28;20029;-93
2023/10/10 08:49:47;;;;;;;62.85;44.70;;;16.10;99.90;;;;;;5055036;28;20076;-94
2023/10/10 08:52:33;;;;;;;67.53;45.28;;;16.20;99.90;;;;;;5068893;28;20014;-94
2023/10/10 08:55:00;;;;;;;63.10;43.22;;;15.60;99.90;;;;;;5067786;28;20489;-94
2023/10/10 08:57:51;;;;;;;69.57;44.75;;;16.50;99.90;;;;;;5076047;28;20050;-94
2023/10/10 09:00:20;;;;;;;60.28;44.60;;;15.90;99.90;;;;;;5065234;28;20033;-93
2023/10/10 09:02:46;;;;;;;65.50;44.70;;;16.30;99.90;;;;;;5068197;28;20033;-93
2023/10/10 09:05:38;;;;;;;64.32;43.40;;;16.40;99.90;;;;;;5066684;28;20502;-94
2023/10/10 09:08:26;;;;;;;66.88;43.78;;;16.70;99.90;;;;;;5095341;22;20065;-96
2023/10/10 09:10:58;;;;;;;57.33;41.55;;;16.40;99.90;;;;;;5074794;28;20043;-94
2023/10/10 09:16:46;;;;;;;65.22;43.97;;;16.60;99.90;;;;;;5070874;28;20124;-94
2023/10/10 09:19:14;;;;;;;64.30;43.60;;;16.60;99.90;;;;;;5067326;28;20057;-94
2023/10/10 09:22:02;;;;;;;56.53;42.58;;;16.60;99.90;;;;;;5071885;28;20086;-94
2023/10/10 09:24:31;;;;;;;59.53;40.33;;;16.60;99.90;;;;;;5069588;28;20021;-94
2023/10/10 09:27:56;;;;;;;56.47;40.08;;;16.70;99.90;;;;;;5065663;28;20059;-95
2023/10/10 09:30:30;;;;;;;57.72;40.00;;;16.80;99.90;;;;;;5003450;28;20042;-93
2023/10/10 09:36:09;;;;;;;47.40;36.42;;;16.90;99.90;;;;;;5062625;28;20036;-94
2023/10/10 09:44:53;;;;;;;48.90;36.65;;;16.70;99.90;;;;;;5048199;28;20037;-93
2023/10/10 09:47:43;;;;;;;56.85;36.17;;;17.10;99.90;;;;;;5059378;28;20032;-94
2023/10/10 09:52:59;;;;;;;50.50;34.35;;;17.20;99.90;;;;;;5069800;28;20060;-94
2023/10/10 09:58:24;;;;;;;42.85;31.77;;;18.50;99.90;;;;;;5068344;28;20048;-93
2023/10/10 10:03:42;;;;;;;45.17;32.58;;;17.40;99.90;;;;;;5064580;28;20040;-95
2023/10/10 10:06:40;;;;;;;46.60;30.65;;;18.00;99.90;;;;;;5068190;28;20029;-94
2023/10/10 10:10:09;;;;;;;46.22;31.63;;;18.60;99.90;;;;;;5064532;28;20029;-95
2023/10/10 10:12:33;;;;;;;49.85;32.38;;;17.30;99.90;;;;;;5058049;28;20504;-95
2023/10/10 10:15:18;;;;;;;40.67;30.52;;;17.40;99.90;;;;;;5064923;28;20033;-95
2023/10/10 10:18:19;;;;;;;50.95;32.65;;;16.70;99.90;;;;;;5074636;28;20114;-94
2023/10/10 10:23:45;;;;;;;51.97;31.73;;;18.40;99.90;;;;;;5067923;28;20037;-95
2023/10/10 10:26:31;;;;;;;49.08;33.20;;;17.60;99.90;;;;;;5051122;28;20013;-95
2023/10/10 10:29:26;;;;;;;52.20;32.65;;;18.50;99.90;;;;;;5078069;28;20013;-95
2023/10/10 10:32:10;;;;;;;47.85;31.42;;;17.70;99.90;;;;;;5060978;28;20035;-95
2023/10/10 10:34:37;;;;;;;50.08;31.33;;;18.60;99.90;;;;;;5078360;28;20013;-94
2023/10/10 10:37:28;;;;;;;44.42;29.65;;;18.70;99.90;;;;;;5077824;28;20055;-93
2023/10/10 10:40:24;;;;;;;48.67;31.30;;;18.00;99.90;;;;;;5077957;28;20013;-94
2023/10/10 10:46:15;;;;;;;46.65;30.45;;;17.80;99.90;;;;;;5234615;22;20057;-95
2023/10/10 10:49:07;;;;;;;46.35;30.33;;;17.90;99.90;;;;;;5070126;28;20456;-94
2023/10/10 10:55:18;;;;;;;35.33;25.70;;;17.90;99.90;;;;;;5075498;28;20028;-94
2023/10/10 10:57:43;;;;;;;38.25;27.65;;;17.90;99.90;;;;;;5068672;28;20025;-93
2023/10/10 11:00:56;;;;;;;43.05;28.13;;;18.20;99.90;;;;;;5070976;28;20032;-95
2023/10/10 11:03:43;;;;;;;43.47;28.80;;;18.60;99.90;;;;;;5071384;28;20041;-94
2023/10/10 11:06:10;;;;;;;41.65;25.85;;;18.10;99.90;;;;;;5068308;28;20017;-93
2023/10/10 11:11:27;;;;;;;41.55;28.75;;;18.90;99.90;;;;;;5065478;28;20040;-95
2023/10/10 11:16:45;;;;;;;41.47;25.77;;;19.00;99.90;;;;;;5075181;28;20071;-95
2023/10/10 11:21:54;;;;;;;32.58;23.70;;;18.30;99.90;;;;;;5066470;28;20037;-93
2023/10/10 11:24:36;;;;;;;35.58;21.77;;;18.40;99.90;;;;;;5051293;28;20029;-94
2023/10/10 11:29:48;;;;;;;33.55;21.45;;;18.10;99.90;;;;;;5066202;28;20029;-95
2023/10/10 11:32:23;;;;;;;33.67;22.30;;;18.30;99.90;;;;;;5065750;28;20025;-94
2023/10/10 11:34:50;;;;;;;27.83;21.15;;;18.90;99.90;;;;;;5054006;28;20029;-95
2023/10/10 11:37:23;;;;;;;41.88;21.83;;;18.40;99.90;;;;;;5068890;28;20116;-94
2023/10/10 11:40:01;;;;;;;33.70;22.90;;;18.80;99.90;;;;;;5065853;28;20509;-95
2023/10/10 11:42:33;;;;;;;30.20;20.85;;;18.80;99.90;;;;;;5068481;28;20040;-95
2023/10/10 11:45:07;;;;;;;33.08;22.23;;;18.80;99.90;;;;;;5057925;28;20056;-95
2023/10/10 11:51:06;;;;;;;37.90;21.95;;;18.90;99.90;;;;;;5022934;28;20026;-93
2023/10/10 11:53:48;;;;;;;37.58;22.35;;;20.00;99.90;;;;;;5072467;28;20036;-94
2023/10/10 11:56:25;;;;;;;37.03;22.48;;;20.10;99.90;;;;;;5068845;28;20473;-93
2023/10/10 11:58:52;;;;;;;37.22;21.98;;;19.10;99.90;;;;;;5067829;28;20036;-96
2023/10/10 12:04:20;;;;;;;34.35;22.48;;;19.60;99.90;;;;;;5066949;28;20044;-96
2023/10/10 12:06:55;;;;;;;35.00;23.25;;;19.40;99.90;;;;;;5067740;28;20033;-94
2023/10/10 12:09:22;;;;;;;36.42;21.75;;;19.30;99.90;;;;;;5065393;28;20049;-93
2023/10/10 12:11:49;;;;;;;35.42;21.45;;;19.30;99.90;;;;;;5068578;28;20035;-95
2023/10/10 12:14:30;;;;;;;32.25;22.90;;;19.30;99.90;;;;;;5073336;28;20041;-94
2023/10/10 12:17:28;;;;;;;39.03;21.13;;;19.30;99.90;;;;;;5075636;28;20021;-94
2023/10/10 12:19:56;;;;;;;32.35;21.73;;;19.30;99.90;;;;;;5071756;28;20025;-94
2023/10/10 12:22:24;;;;;;;37.58;23.10;;;19.30;99.90;;;;;;5073347;28;20070;-94
2023/10/10 12:24:50;;;;;;;32.53;22.02;;;20.50;99.90;;;;;;5070508;28;20036;-94
2023/10/10 12:27:16;;;;;;;32.42;21.38;;;20.10;99.90;;;;;;5072437;28;20375;-94
2023/10/10 12:29:42;;;;;;;32.47;22.30;;;20.50;99.90;;;;;;5072969;28;20060;-95
2023/10/10 12:32:37;;;;;;;30.25;21.85;;;19.30;99.90;;;;;;5073322;28;20060;-94
2023/10/10 12:35:03;;;;;;;30.88;20.95;;;19.30;99.90;;;;;;5077085;28;20040;-94
2023/10/10 12:37:38;;;;;;;34.65;22.33;;;19.60;99.90;;;;;;5074078;28;20036;-93
2023/10/10 12:40:08;;;;;;;26.92;19.25;;;19.20;99.90;;;;;;5070623;28;20024;-94
2023/10/10 12:46:09;;;;;;;35.75;21.73;;;19.80;99.90;;;;;;5033216;28;20049;-94
2023/10/10 12:48:41;;;;;;;36.38;21.95;;;19.90;99.90;;;;;;5054894;28;20025;-93
2023/10/10 12:51:11;;;;;;;31.73;20.30;;;20.40;99.90;;;;;;5077699;28;20025;-94
2023/10/10 12:53:55;;;;;;;35.10;22.80;;;19.90;99.90;;;;;;5073999;28;20017;-92
2023/10/10 12:56:23;;;;;;;32.53;20.00;;;20.20;99.90;;;;;;5076028;28;20021;-94
2023/10/10 12:59:03;;;;;;;31.60;21.17;;;20.10;99.90;;;;;;5074829;28;20033;-95
2023/10/10 13:01:43;;;;;;;31.45;20.02;;;20.10;99.90;;;;;;5076262;28;20037;-94
2023/10/10 13:04:11;;;;;;;37.45;20.80;;;20.10;99.90;;;;;;5075038;28;20056;-95
2023/10/10 13:07:04;;;;;;;35.78;20.92;;;19.50;99.90;;;;;;5071923;28;20028;-95
2023/10/10 13:09:51;;;;;;;35.63;21.10;;;20.10;99.90;;;;;;5072630;28;20112;-95
2023/10/10 13:12:27;;;;;;;28.25;19.45;;;19.80;99.90;;;;;;5076002;28;20037;-94
2023/10/10 13:15:47;;;;;;;25.20;18.50;;;20.10;99.90;;;;;;5072634;28;20017;-96
2023/10/10 13:18:30;;;;;;;33.28;19.55;;;20.50;99.90;;;;;;5031201;28;20033;-94
2023/10/10 13:21:03;;;;;;;28.20;18.60;;;21.10;99.90;;;;;;5012435;28;20062;-95
2023/10/10 13:23:43;;;;;;;38.60;18.65;;;21.20;99.90;;;;;;5027668;28;20034;-95
2023/10/10 13:26:10;;;;;;;29.40;16.27;;;20.30;99.90;;;;;;5028008;28;20046;-95
2023/10/10 13:28:44;;;;;;;28.52;16.20;;;21.50;99.90;;;;;;5026449;28;20030;-95
2023/10/10 13:31:29;;;;;;;23.88;14.93;;;20.40;99.90;;;;;;5031229;28;20030;-95
2023/10/10 13:34:04;;;;;;;21.73;14.65;;;20.50;99.90;;;;;;5037938;28;20026;-95
2023/10/10 13:36:36;;;;;;;27.63;14.45;;;20.30;99.90;;;;;;5038398;28;20022;-93
2023/10/10 13:39:07;;;;;;;25.13;16.67;;;20.50;99.90;;;;;;5037076;28;20014;-94
2023/10/10 13:41:36;;;;;;;18.73;13.40;;;20.30;99.90;;;;;;5031449;28;20041;-94
2023/10/10 13:44:10;;;;;;;21.60;13.82;;;20.70;99.90;;;;;;5024020;28;20113;-93
2023/10/10 13:46:37;;;;;;;19.17;13.35;;;20.70;99.90;;;;;;5035104;28;20050;-94
2023/10/10 13:49:08;;;;;;;22.63;14.77;;;21.80;99.90;;;;;;5024761;28;20028;-95
2023/10/10 13:51:41;;;;;;;19.23;13.70;;;21.50;99.90;;;;;;5021170;28;20201;-93
2023/10/10 13:54:07;;;;;;;21.73;12.57;;;20.80;99.90;;;;;;5018484;28;20112;-94
2023/10/10 13:56:33;;;;;;;16.73;12.13;;;20.10;99.90;;;;;;5017031;28;20030;-95
2023/10/10 13:59:02;;;;;;;21.15;12.68;;;20.70;99.90;;;;;;5017107;28;20029;-95
2023/10/10 14:06:54;;;;;;;16.05;13.13;;;20.70;99.90;;;;;;5018070;28;20029;-94
2023/10/10 14:09:38;;;;;;;21.90;14.30;;;20.50;99.90;;;;;;5059157;28;20033;-94
2023/10/10 14:12:06;;;;;;;25.13;14.68;;;20.50;99.90;;;;;;5065149;28;20028;-94
2023/10/10 14:14:33;;;;;;;23.42;13.90;;;20.40;99.90;;;;;;5066446;28;20029;-95
2023/10/10 14:17:01;;;;;;;23.58;13.10;;;20.70;99.90;;;;;;5053540;28;20036;-95
2023/10/10 14:19:40;;;;;;;21.77;13.45;;;20.30;99.90;;;;;;5060345;28;20040;-94
2023/10/10 14:22:10;;;;;;;18.15;12.85;;;20.40;99.90;;;;;;5058870;28;20044;-95
2023/10/10 14:24:39;;;;;;;18.67;13.25;;;19.60;99.90;;;;;;5058444;28;20018;-93
2023/10/10 14:27:05;;;;;;;22.05;12.55;;;20.60;99.90;;;;;;5059982;28;20120;-93
2023/10/10 14:29:41;;;;;;;18.92;12.23;;;20.80;99.90;;;;;;5065569;28;20021;-93
2023/10/10 14:32:10;;;;;;;21.73;13.27;;;20.70;99.90;;;;;;5066951;28;20249;-93
2023/10/10 14:34:39;;;;;;;21.20;13.73;;;20.80;99.90;;;;;;5063737;28;20028;-94
2023/10/10 14:37:05;;;;;;;19.30;13.13;;;20.90;99.90;;;;;;5058925;28;20032;-94
2023/10/10 14:39:51;;;;;;;21.70;13.15;;;21.00;99.90;;;;;;5059674;28;20062;-94
2023/10/10 14:42:17;;;;;;;22.15;14.07;;;21.40;99.90;;;;;;5058424;28;20047;-94
2023/10/10 14:44:42;;;;;;;18.38;13.45;;;21.90;99.90;;;;;;5057130;28;20497;-93
2023/10/10 14:47:09;;;;;;;18.15;12.23;;;22.10;99.90;;;;;;5055788;28;20123;-95
2023/10/10 14:49:38;;;;;;;14.93;11.63;;;21.80;99.90;;;;;;5056410;28;20025;-94
2023/10/10 14:52:04;;;;;;;18.73;12.18;;;21.30;99.90;;;;;;5057028;28;20067;-93
2023/10/10 14:54:36;;;;;;;16.90;11.52;;;21.20;99.90;;;;;;5057984;28;20017;-94
2023/10/10 14:57:29;;;;;;;17.02;12.35;;;20.90;99.90;;;;;;5051840;28;20033;-94
2023/10/10 14:59:55;;;;;;;25.33;12.90;;;20.90;99.90;;;;;;5055881;28;20033;-93
2023/10/10 15:02:21;;;;;;;21.85;11.85;;;20.90;99.90;;;;;;5055683;28;20037;-93
2023/10/10 15:04:50;;;;;;;21.08;13.07;;;21.20;99.90;;;;;;5059393;28;20390;-94
2023/10/10 15:07:34;;;;;;;16.35;11.65;;;21.00;99.90;;;;;;5059399;28;20029;-94
2023/10/10 15:10:00;;;;;;;14.15;10.77;;;21.10;99.90;;;;;;5057793;28;20021;-94
2023/10/10 15:12:25;;;;;;;19.00;11.57;;;22.10;99.90;;;;;;5059509;28;20364;-93
2023/10/10 15:15:09;;;;;;;20.40;12.45;;;21.90;99.90;;;;;;5058216;28;20433;-94
2023/10/10 15:17:38;;;;;;;21.45;13.35;;;19.90;99.90;;;;;;5057855;28;20086;-94
2023/10/10 15:20:19;;;;;;;19.30;12.70;;;21.10;99.90;;;;;;5060260;28;20116;-94
2023/10/10 15:22:45;;;;;;;16.10;11.23;;;21.10;99.90;;;;;;5061644;28;20040;-94
2023/10/10 15:25:21;;;;;;;20.50;11.93;;;21.90;99.90;;;;;;5060274;28;20021;-94
2023/10/10 15:27:48;;;;;;;13.80;11.52;;;20.40;99.90;;;;;;5056764;28;20033;-94
2023/10/10 15:30:59;;;;;;;19.10;12.52;;;22.10;99.90;;;;;;5056259;28;20021;-94
2023/10/10 15:33:25;;;;;;;20.92;12.38;;;21.00;99.90;;;;;;5048585;28;20448;-94
2023/10/10 15:35:52;;;;;;;24.83;12.40;;;22.00;99.90;;;;;;5054867;28;20112;-93
2023/10/10 15:38:36;;;;;;;13.98;11.32;;;21.70;99.90;;;;;;5060475;28;20032;-94
2023/10/10 15:41:21;;;;;;;16.25;10.05;;;22.10;99.90;;;;;;5070393;28;20029;-93
2023/10/10 15:43:48;;;;;;;16.50;10.25;;;21.00;99.90;;;;;;5060721;28;20033;-92
2023/10/10 15:46:15;;;;;;;15.20;9.52;;;22.10;99.90;;;;;;5057551;28;20045;-94
2023/10/10 15:48:59;;;;;;;17.38;10.90;;;21.70;99.90;;;;;;5061087;28;20029;-93
2023/10/10 15:51:26;;;;;;;26.35;10.40;;;21.20;99.90;;;;;;5061675;28;20021;-93
2023/10/10 15:54:11;;;;;;;14.93;8.88;;;21.10;99.90;;;;;;5059550;28;20492;-94
2023/10/10 15:56:37;;;;;;;17.55;9.43;;;21.30;99.90;;;;;;5060264;28;20029;-94
2023/10/10 15:59:03;;;;;;;15.05;10.50;;;21.30;99.90;;;;;;5058296;28;20083;-94
2023/10/10 16:01:31;;;;;;;16.42;9.50;;;20.90;99.90;;;;;;5058272;28;20041;-94
2023/10/10 16:04:05;;;;;;;12.98;8.77;;;22.00;99.90;;;;;;5059042;28;20057;-93
2023/10/10 16:06:51;;;;;;;14.35;10.68;;;21.40;99.90;;;;;;5062406;28;20025;-93
2023/10/10 16:09:20;;;;;;;14.93;11.13;;;21.40;99.90;;;;;;5060633;28;20378;-93
2023/10/10 16:14:36;;;;;;;14.68;9.98;;;20.70;99.90;;;;;;5061981;28;20078;-94
2023/10/10 16:17:02;;;;;;;15.43;9.77;;;20.70;99.90;;;;;;5061665;28;20036;-94
2023/10/10 16:22:13;;;;;;;15.13;10.27;;;20.70;99.90;;;;;;5066382;22;20064;-96
2023/10/10 16:24:57;;;;;;;15.43;9.82;;;20.70;99.90;;;;;;5044568;28;20033;-96
2023/10/10 16:27:25;;;;;;;13.93;8.63;;;21.80;99.90;;;;;;5059817;28;20033;-92
2023/10/10 16:29:55;;;;;;;14.55;8.93;;;21.30;99.90;;;;;;5069462;28;20021;-96